sensor_id;sensor_type;location;lat;lon;timestamp;pressure;altitude;pressure_sealevel;temperature;humidity
37852;BME280;23691;52.486;4.650;2023-07-02T00:15:35;100702.88;;;18.56;52.92
37852;BME280;23691;52.486;4.650;2023-07-02T00:43:13;100698.97;;;18.45;55.82
37852;BME280;23691;52.486;4.650;2023-07-02T12:08:01;101079.91;;;23.49;42.66
37852;BME280;23691;52.486;4.650;2023-07-02T12:10:54;101085.22;;;23.56;42.83
37852;BME280;23691;52.486;4.650;2023-07-02T12:21:09;101089.34;;;24.21;41.72
37852;BME280;23691;52.486;4.650;2023-07-02T12:24:50;101084.50;;;24.45;41.06
37852;BME280;23691;52.486;4.650;2023-07-02T12:30:53;101113.00;;;24.66;41.27
37852;BME280;23691;52.486;4.650;2023-07-02T12:34:21;101115.28;;;24.91;41.14
37852;BME280;23691;52.486;4.650;2023-07-02T12:37:58;101113.09;;;25.15;40.58
37852;BME280;23691;52.486;4.650;2023-07-02T12:44:28;101111.59;;;25.24;40.85
37852;BME280;23691;52.486;4.650;2023-07-02T12:51:10;101115.38;;;25.18;40.62
37852;BME280;23691;52.486;4.650;2023-07-02T12:54:18;101110.31;;;25.10;41.08
37852;BME280;23691;52.486;4.650;2023-07-02T12:57:35;101112.75;;;25.28;40.34
37852;BME280;23691;52.486;4.650;2023-07-02T13:03:56;101104.13;;;25.42;39.92
37852;BME280;23691;52.486;4.650;2023-07-02T13:07:09;101112.78;;;25.56;39.66
37852;BME280;23691;52.486;4.650;2023-07-02T13:11:03;101113.50;;;25.73;39.89
37852;BME280;23691;52.486;4.650;2023-07-02T13:14:33;101127.44;;;25.71;39.46
37852;BME280;23691;52.486;4.650;2023-07-02T13:25:28;101139.66;;;25.59;37.54
37852;BME280;23691;52.486;4.650;2023-07-02T13:45:25;101120.81;;;25.89;37.70
37852;BME280;23691;52.486;4.650;2023-07-02T13:49:17;101123.56;;;25.89;37.83
37852;BME280;23691;52.486;4.650;2023-07-02T13:52:23;101117.44;;;26.09;37.77
37852;BME280;23691;52.486;4.650;2023-07-02T13:55:19;101120.03;;;26.26;37.28
37852;BME280;23691;52.486;4.650;2023-07-02T14:08:20;101117.16;;;25.84;37.51
37852;BME280;23691;52.486;4.650;2023-07-02T14:11:56;101124.69;;;25.94;37.77
37852;BME280;23691;52.486;4.650;2023-07-02T14:18:53;101115.69;;;26.35;37.47
37852;BME280;23691;52.486;4.650;2023-07-02T14:22:35;101113.84;;;26.41;37.13
37852;BME280;23691;52.486;4.650;2023-07-02T14:26:13;101110.81;;;26.43;36.82
37852;BME280;23691;52.486;4.650;2023-07-02T14:34:23;101112.09;;;26.30;36.73
37852;BME280;23691;52.486;4.650;2023-07-02T14:37:25;101109.25;;;26.15;36.15
37852;BME280;23691;52.486;4.650;2023-07-02T14:40:18;101097.78;;;25.90;36.74
37852;BME280;23691;52.486;4.650;2023-07-02T15:01:22;101102.28;;;25.75;35.67
37852;BME280;23691;52.486;4.650;2023-07-02T15:08:21;101108.16;;;25.61;35.67
37852;BME280;23691;52.486;4.650;2023-07-02T15:11:47;101096.34;;;25.56;35.80
37852;BME280;23691;52.486;4.650;2023-07-02T15:25:13;101087.00;;;25.07;37.03
37852;BME280;23691;52.486;4.650;2023-07-02T15:31:22;101088.03;;;25.01;37.54
37852;BME280;23691;52.486;4.650;2023-07-02T15:45:29;101088.13;;;24.68;39.23
37852;BME280;23691;52.486;4.650;2023-07-02T15:48:39;101091.63;;;24.63;39.69
37852;BME280;23691;52.486;4.650;2023-07-02T15:51:59;101086.66;;;24.60;39.74
37852;BME280;23691;52.486;4.650;2023-07-02T15:55:23;101085.44;;;24.51;40.07
37852;BME280;23691;52.486;4.650;2023-07-02T15:58:23;101091.06;;;24.44;40.32
37852;BME280;23691;52.486;4.650;2023-07-02T16:01:30;101094.22;;;24.36;40.35
37852;BME280;23691;52.486;4.650;2023-07-02T16:04:18;101084.22;;;24.25;40.41
37852;BME280;23691;52.486;4.650;2023-07-02T16:14:36;101086.88;;;24.03;40.73
37852;BME280;23691;52.486;4.650;2023-07-02T16:17:19;101079.91;;;23.95;41.17
37852;BME280;23691;52.486;4.650;2023-07-02T16:20:37;101080.38;;;23.92;41.68
37852;BME280;23691;52.486;4.650;2023-07-02T16:23:35;101092.06;;;23.87;41.64
37852;BME280;23691;52.486;4.650;2023-07-02T16:26:47;101082.38;;;23.79;41.57
37852;BME280;23691;52.486;4.650;2023-07-02T16:30:15;101072.66;;;23.72;41.47
37852;BME280;23691;52.486;4.650;2023-07-02T16:41:12;101060.88;;;23.54;42.66
37852;BME280;23691;52.486;4.650;2023-07-02T16:44:26;101060.44;;;23.46;42.88
37852;BME280;23691;52.486;4.650;2023-07-02T16:47:30;101060.69;;;23.44;43.34
37852;BME280;23691;52.486;4.650;2023-07-02T16:50:31;101057.63;;;23.41;43.22
37852;BME280;23691;52.486;4.650;2023-07-02T16:53:45;101055.63;;;23.36;43.43
37852;BME280;23691;52.486;4.650;2023-07-02T16:57:01;101053.53;;;23.26;43.60
37852;BME280;23691;52.486;4.650;2023-07-02T16:59:45;101047.13;;;23.21;44.07
37852;BME280;23691;52.486;4.650;2023-07-02T17:02:54;101050.84;;;23.14;44.39
37852;BME280;23691;52.486;4.650;2023-07-02T17:09:29;101053.63;;;23.03;44.75
37852;BME280;23691;52.486;4.650;2023-07-02T17:12:17;101044.84;;;23.01;45.58
37852;BME280;23691;52.486;4.650;2023-07-02T17:15:00;101034.75;;;23.01;45.48
37852;BME280;23691;52.486;4.650;2023-07-02T17:18:12;101041.06;;;23.02;45.07
37852;BME280;23691;52.486;4.650;2023-07-02T17:21:16;101034.28;;;22.92;45.35
37852;BME280;23691;52.486;4.650;2023-07-02T17:24:28;101032.50;;;22.86;45.89
37852;BME280;23691;52.486;4.650;2023-07-02T17:27:40;101031.25;;;22.77;46.00
37852;BME280;23691;52.486;4.650;2023-07-02T17:30:37;101036.00;;;22.70;46.18
37852;BME280;23691;52.486;4.650;2023-07-02T17:33:35;101029.63;;;22.64;46.71
37852;BME280;23691;52.486;4.650;2023-07-02T17:36:36;101031.28;;;22.65;47.27
37852;BME280;23691;52.486;4.650;2023-07-02T17:42:28;101017.53;;;22.60;47.73
37852;BME280;23691;52.486;4.650;2023-07-02T17:45:28;101025.94;;;22.59;47.92
37852;BME280;23691;52.486;4.650;2023-07-02T17:48:13;101027.25;;;22.56;48.18
37852;BME280;23691;52.486;4.650;2023-07-02T17:50:58;101020.38;;;22.54;48.02
37852;BME280;23691;52.486;4.650;2023-07-02T17:57:14;101002.38;;;22.41;48.06
37852;BME280;23691;52.486;4.650;2023-07-02T17:59:49;101006.31;;;22.33;48.13
37852;BME280;23691;52.486;4.650;2023-07-02T18:05:21;101006.75;;;22.18;48.48
37852;BME280;23691;52.486;4.650;2023-07-02T18:08:21;101005.81;;;22.13;48.43
37852;BME280;23691;52.486;4.650;2023-07-02T18:11:28;101013.84;;;22.07;48.67
37852;BME280;23691;52.486;4.650;2023-07-02T18:14:29;101003.53;;;21.98;48.66
37852;BME280;23691;52.486;4.650;2023-07-02T18:17:32;101000.97;;;21.91;48.47
37852;BME280;23691;52.486;4.650;2023-07-02T18:20:38;101002.59;;;21.80;48.98
37852;BME280;23691;52.486;4.650;2023-07-02T18:35:28;101000.78;;;21.62;50.17
37852;BME280;23691;52.486;4.650;2023-07-02T18:38:46;101002.09;;;21.60;50.12
37852;BME280;23691;52.486;4.650;2023-07-02T18:41:26;100993.44;;;21.51;51.03
37852;BME280;23691;52.486;4.650;2023-07-02T18:49:02;101005.25;;;21.45;52.23
37852;BME280;23691;52.486;4.650;2023-07-02T18:52:34;100998.59;;;21.41;52.31
37852;BME280;23691;52.486;4.650;2023-07-02T18:55:24;100992.19;;;21.35;52.11
37852;BME280;23691;52.486;4.650;2023-07-02T19:02:25;101000.91;;;21.26;53.24
37852;BME280;23691;52.486;4.650;2023-07-02T19:04:55;100995.31;;;21.20;53.35
37852;BME280;23691;52.486;4.650;2023-07-02T19:07:41;100996.63;;;21.18;53.33
37852;BME280;23691;52.486;4.650;2023-07-02T19:10:07;100993.97;;;21.11;53.12
37852;BME280;23691;52.486;4.650;2023-07-02T19:12:38;100994.91;;;21.05;53.21
37852;BME280;23691;52.486;4.650;2023-07-02T19:15:07;100988.28;;;21.01;53.26
37852;BME280;23691;52.486;4.650;2023-07-02T19:17:33;100996.28;;;20.96;53.33
37852;BME280;23691;52.486;4.650;2023-07-02T19:20:11;100989.50;;;20.87;53.94
37852;BME280;23691;52.486;4.650;2023-07-02T19:23:02;100984.38;;;20.78;54.11
37852;BME280;23691;52.486;4.650;2023-07-02T19:26:07;100989.22;;;20.76;54.25
37852;BME280;23691;52.486;4.650;2023-07-02T19:31:50;100992.56;;;20.60;54.84
37852;BME280;23691;52.486;4.650;2023-07-02T19:34:29;100988.19;;;20.59;54.88
37852;BME280;23691;52.486;4.650;2023-07-02T19:37:18;100975.25;;;20.54;54.97
37852;BME280;23691;52.486;4.650;2023-07-02T19:40:07;100988.47;;;20.51;55.07
37852;BME280;23691;52.486;4.650;2023-07-02T19:50:07;100988.00;;;20.35;55.66
37852;BME280;23691;52.486;4.650;2023-07-02T19:52:36;100991.16;;;20.32;56.45
37852;BME280;23691;52.486;4.650;2023-07-02T19:55:05;100995.16;;;20.30;56.33
37852;BME280;23691;52.486;4.650;2023-07-02T19:57:33;101002.13;;;20.26;56.61
37852;BME280;23691;52.486;4.650;2023-07-02T20:00:01;100982.50;;;20.24;56.74
37852;BME280;23691;52.486;4.650;2023-07-02T20:02:32;100983.38;;;20.17;56.80
37852;BME280;23691;52.486;4.650;2023-07-02T20:04:59;100984.19;;;20.18;56.79
37852;BME280;23691;52.486;4.650;2023-07-02T20:07:28;100991.53;;;20.17;57.03
37852;BME280;23691;52.486;4.650;2023-07-02T20:09:58;100990.09;;;20.15;57.06
37852;BME280;23691;52.486;4.650;2023-07-02T20:12:33;100982.19;;;20.13;57.38
37852;BME280;23691;52.486;4.650;2023-07-02T20:15:34;100996.19;;;20.10;57.01
37852;BME280;23691;52.486;4.650;2023-07-02T20:18:05;100990.38;;;20.07;57.15
37852;BME280;23691;52.486;4.650;2023-07-02T20:20:33;100993.09;;;20.07;57.22
37852;BME280;23691;52.486;4.650;2023-07-02T20:23:02;100992.03;;;20.08;57.42
37852;BME280;23691;52.486;4.650;2023-07-02T20:25:51;100994.38;;;20.04;57.53
37852;BME280;23691;52.486;4.650;2023-07-02T20:28:24;100993.56;;;20.04;57.36
37852;BME280;23691;52.486;4.650;2023-07-02T20:31:02;100986.25;;;20.04;57.60
37852;BME280;23691;52.486;4.650;2023-07-02T20:33:28;100990.59;;;20.05;57.53
37852;BME280;23691;52.486;4.650;2023-07-02T20:36:07;100987.88;;;20.05;57.44
37852;BME280;23691;52.486;4.650;2023-07-02T20:38:45;100984.81;;;20.02;57.56
37852;BME280;23691;52.486;4.650;2023-07-02T20:41:25;100993.16;;;20.00;57.71
37852;BME280;23691;52.486;4.650;2023-07-02T20:44:18;100990.22;;;20.02;57.39
37852;BME280;23691;52.486;4.650;2023-07-02T20:46:46;100979.53;;;20.07;56.88
37852;BME280;23691;52.486;4.650;2023-07-02T20:52:28;100983.97;;;20.01;57.26
37852;BME280;23691;52.486;4.650;2023-07-02T20:55:03;100979.97;;;20.04;57.49
37852;BME280;23691;52.486;4.650;2023-07-02T20:58:52;100986.00;;;20.06;57.01
37852;BME280;23691;52.486;4.650;2023-07-02T21:01:30;100988.13;;;20.04;56.97
37852;BME280;23691;52.486;4.650;2023-07-02T21:03:58;100994.84;;;20.01;56.99
37852;BME280;23691;52.486;4.650;2023-07-02T21:06:37;100976.03;;;20.00;57.83
37852;BME280;23691;52.486;4.650;2023-07-02T21:09:12;100980.19;;;20.02;57.63
37852;BME280;23691;52.486;4.650;2023-07-02T21:11:40;100976.41;;;20.03;57.76
37852;BME280;23691;52.486;4.650;2023-07-02T21:14:13;100980.56;;;20.06;57.72
37852;BME280;23691;52.486;4.650;2023-07-02T21:16:48;100975.13;;;20.06;58.17
37852;BME280;23691;52.486;4.650;2023-07-02T21:19:16;100987.13;;;19.98;57.71
37852;BME280;23691;52.486;4.650;2023-07-02T21:21:54;100984.63;;;19.97;58.05
37852;BME280;23691;52.486;4.650;2023-07-02T21:24:27;100969.38;;;19.95;58.00
37852;BME280;23691;52.486;4.650;2023-07-02T21:26:55;100965.03;;;19.94;58.21
37852;BME280;23691;52.486;4.650;2023-07-02T21:29:23;100973.78;;;19.97;57.98
37852;BME280;23691;52.486;4.650;2023-07-02T21:31:49;100966.47;;;19.97;58.04
37852;BME280;23691;52.486;4.650;2023-07-02T21:34:21;100966.25;;;19.99;58.20
37852;BME280;23691;52.486;4.650;2023-07-02T21:36:55;100966.47;;;19.97;57.71
37852;BME280;23691;52.486;4.650;2023-07-02T21:39:28;100972.50;;;19.99;57.38
37852;BME280;23691;52.486;4.650;2023-07-02T21:41:56;100967.06;;;19.99;57.08
37852;BME280;23691;52.486;4.650;2023-07-02T21:44:22;100962.09;;;19.96;56.72
37852;BME280;23691;52.486;4.650;2023-07-02T21:46:47;100966.06;;;19.93;56.08
37852;BME280;23691;52.486;4.650;2023-07-02T21:49:19;100960.63;;;19.93;56.10
37852;BME280;23691;52.486;4.650;2023-07-02T21:51:48;100959.59;;;19.94;56.15
37852;BME280;23691;52.486;4.650;2023-07-02T21:54:25;100968.19;;;19.91;56.69
37852;BME280;23691;52.486;4.650;2023-07-02T21:56:57;100965.47;;;19.91;56.14
37852;BME280;23691;52.486;4.650;2023-07-02T21:59:36;100967.13;;;19.92;55.69
37852;BME280;23691;52.486;4.650;2023-07-02T22:02:03;100960.03;;;19.91;55.61
37852;BME280;23691;52.486;4.650;2023-07-02T22:04:32;100959.44;;;19.89;55.44
37852;BME280;23691;52.486;4.650;2023-07-02T22:07:04;100961.31;;;19.89;55.44
37852;BME280;23691;52.486;4.650;2023-07-02T22:09:33;100958.59;;;19.89;55.73
37852;BME280;23691;52.486;4.650;2023-07-02T22:12:01;100957.75;;;19.88;55.89
37852;BME280;23691;52.486;4.650;2023-07-02T22:14:30;100944.88;;;19.84;55.84
37852;BME280;23691;52.486;4.650;2023-07-02T22:17:00;100961.16;;;19.84;56.22
37852;BME280;23691;52.486;4.650;2023-07-02T22:19:43;100961.16;;;19.84;56.57
37852;BME280;23691;52.486;4.650;2023-07-02T22:22:22;100952.41;;;19.82;56.87
37852;BME280;23691;52.486;4.650;2023-07-02T22:24:50;100944.88;;;19.84;57.31
37852;BME280;23691;52.486;4.650;2023-07-02T22:27:19;100944.88;;;19.84;57.34
37852;BME280;23691;52.486;4.650;2023-07-02T22:29:52;100940.28;;;19.84;57.14
37852;BME280;23691;52.486;4.650;2023-07-02T22:35:25;100932.13;;;19.84;56.71
37852;BME280;23691;52.486;4.650;2023-07-02T22:37:57;100933.16;;;19.83;56.71
37852;BME280;23691;52.486;4.650;2023-07-02T22:40:28;100941.31;;;19.83;56.63
37852;BME280;23691;52.486;4.650;2023-07-02T22:45:48;100929.47;;;19.78;56.96
37852;BME280;23691;52.486;4.650;2023-07-02T22:48:14;100930.53;;;19.77;56.74
37852;BME280;23691;52.486;4.650;2023-07-02T22:53:34;100922.38;;;19.77;56.45
37852;BME280;23691;52.486;4.650;2023-07-02T22:56:15;100922.38;;;19.77;56.67
37852;BME280;23691;52.486;4.650;2023-07-02T22:58:45;100919.88;;;19.75;57.08
37852;BME280;23691;52.486;4.650;2023-07-02T23:01:17;100921.78;;;19.75;56.79
37852;BME280;23691;52.486;4.650;2023-07-02T23:03:45;100920.72;;;19.76;56.92
37852;BME280;23691;52.486;4.650;2023-07-02T23:06:10;100913.63;;;19.75;57.40
37852;BME280;23691;52.486;4.650;2023-07-02T23:08:36;100911.13;;;19.73;57.25
37852;BME280;23691;52.486;4.650;2023-07-02T23:11:04;100919.28;;;19.73;57.89
37852;BME280;23691;52.486;4.650;2023-07-02T23:13:30;100918.25;;;19.74;57.12
37852;BME280;23691;52.486;4.650;2023-07-02T23:16:13;100909.25;;;19.73;57.28
37852;BME280;23691;52.486;4.650;2023-07-02T23:18:53;100901.94;;;19.74;57.96
37852;BME280;23691;52.486;4.650;2023-07-02T23:21:26;100906.78;;;19.72;57.94
37852;BME280;23691;52.486;4.650;2023-07-02T23:23:52;100899.44;;;19.72;58.20
37852;BME280;23691;52.486;4.650;2023-07-02T23:26:19;100906.78;;;19.72;58.60
37852;BME280;23691;52.486;4.650;2023-07-02T23:28:50;100911.38;;;19.71;58.70
37852;BME280;23691;52.486;4.650;2023-07-02T23:31:26;100905.94;;;19.71;58.46
37852;BME280;23691;52.486;4.650;2023-07-02T23:33:55;100904.41;;;19.76;58.60
37852;BME280;23691;52.486;4.650;2023-07-02T23:36:21;100902.31;;;19.78;58.60
37852;BME280;23691;52.486;4.650;2023-07-02T23:38:53;100902.38;;;19.71;58.64
37852;BME280;23691;52.486;4.650;2023-07-02T23:41:29;100900.13;;;19.68;59.05
37852;BME280;23691;52.486;4.650;2023-07-02T23:43:56;100885.72;;;19.67;59.00
37852;BME280;23691;52.486;4.650;2023-07-02T23:46:22;100883.81;;;19.68;59.33
37852;BME280;23691;52.486;4.650;2023-07-02T23:48:58;100894.47;;;19.69;59.63
37852;BME280;23691;52.486;4.650;2023-07-02T23:51:26;100880.06;;;19.69;59.99
37852;BME280;23691;52.486;4.650;2023-07-02T23:53:55;100877.13;;;19.70;59.98
37852;BME280;23691;52.486;4.650;2023-07-02T23:56:22;100876.31;;;19.70;59.72
37852;BME280;23691;52.486;4.650;2023-07-02T23:58:50;100872.16;;;19.67;58.90
